Time;durP1;ratioP1;P1;durP2;ratioP2;P2;SDS_P1;SDS_P2;PMS_P1;PMS_P2;Temp;Humidity;BMP_temperature;BMP_pressure;BME280_temperature;BME280_humidity;BME280_pressure;Samples;Min_cycle;Max_cycle;Signal;HPM_P1;HPM_P2
2022/04/23 00:02:03;;;;;;;12.32;7.05;;;12.20;99.90;;;;;;5083088;28;20052;-64
2022/04/23 00:04:30;;;;;;;10.20;7.13;;;12.20;99.90;;;;;;5085915;28;20044;-63
2022/04/23 00:06:56;;;;;;;13.00;7.53;;;12.20;99.90;;;;;;5085536;28;20048;-63
2022/04/23 00:09:22;;;;;;;10.52;7.90;;;12.20;99.90;;;;;;5087244;28;20250;-62
2022/04/23 00:11:47;;;;;;;10.68;7.78;;;12.10;99.90;;;;;;5085777;28;20246;-63
2022/04/23 00:14:13;;;;;;;12.52;8.20;;;12.10;99.90;;;;;;5077626;28;20048;-63
2022/04/23 00:16:39;;;;;;;12.25;8.80;;;12.10;99.90;;;;;;5067337;28;20036;-62
2022/04/23 00:19:04;;;;;;;14.35;9.18;;;12.10;99.90;;;;;;5077198;28;20045;-64
2022/04/23 00:21:30;;;;;;;13.65;9.18;;;12.10;99.90;;;;;;5082676;28;20094;-64
2022/04/23 00:23:56;;;;;;;12.85;9.23;;;12.00;99.90;;;;;;5085083;28;20048;-65
2022/04/23 00:26:21;;;;;;;14.27;9.23;;;12.00;99.90;;;;;;5081329;28;20079;-63
2022/04/23 00:28:47;;;;;;;13.30;9.65;;;12.00;99.90;;;;;;5087393;28;20134;-63
2022/04/23 00:31:14;;;;;;;14.30;10.15;;;12.00;99.90;;;;;;5083432;28;20089;-64
2022/04/23 00:33:40;;;;;;;14.25;9.95;;;12.00;99.90;;;;;;5078844;28;20081;-63
2022/04/23 00:36:09;;;;;;;12.43;10.70;;;12.00;99.90;;;;;;5083662;28;20127;-64
2022/04/23 00:38:34;;;;;;;14.05;10.10;;;12.00;99.90;;;;;;5091417;28;20064;-63
2022/04/23 00:41:00;;;;;;;12.70;9.77;;;12.00;99.90;;;;;;5089132;28;20045;-63
2022/04/23 00:43:28;;;;;;;13.27;10.43;;;12.00;99.90;;;;;;5091253;28;20048;-63
2022/04/23 00:45:54;;;;;;;12.55;10.30;;;12.00;99.90;;;;;;5088566;28;20087;-63
2022/04/23 00:48:21;;;;;;;14.27;10.48;;;11.90;99.90;;;;;;5090941;28;20119;-63
2022/04/23 00:50:50;;;;;;;12.98;10.32;;;11.90;99.90;;;;;;5087969;28;20241;-63
2022/04/23 00:53:18;;;;;;;13.88;10.40;;;11.90;99.90;;;;;;5089777;28;20122;-63
2022/04/23 00:55:46;;;;;;;14.43;10.98;;;11.90;99.90;;;;;;5088880;28;20127;-63
2022/04/23 00:58:14;;;;;;;14.48;10.82;;;11.90;99.90;;;;;;5091729;28;20079;-64
2022/04/23 01:00:41;;;;;;;14.23;11.00;;;11.80;99.90;;;;;;5087888;28;20052;-64
2022/04/23 01:03:07;;;;;;;13.60;10.38;;;11.80;99.90;;;;;;5096551;28;20091;-64
2022/04/23 01:05:32;;;;;;;13.02;10.55;;;11.70;99.90;;;;;;5085205;28;20071;-64
2022/04/23 01:08:02;;;;;;;14.10;11.15;;;11.70;99.90;;;;;;5089683;28;20064;-64
2022/04/23 01:10:28;;;;;;;19.85;11.10;;;11.70;99.90;;;;;;5090284;28;20141;-63
2022/04/23 01:12:53;;;;;;;14.85;11.50;;;11.70;99.90;;;;;;5088920;28;20172;-63
2022/04/23 01:15:21;;;;;;;14.80;11.93;;;11.60;99.90;;;;;;5088432;28;20044;-63
2022/04/23 01:17:47;;;;;;;14.52;11.20;;;11.60;99.90;;;;;;5088548;28;20162;-63
2022/04/23 01:20:14;;;;;;;14.43;11.70;;;11.60;99.90;;;;;;5087028;28;20044;-64
2022/04/23 01:22:44;;;;;;;14.07;11.32;;;11.60;99.90;;;;;;5080664;28;20040;-64
2022/04/23 01:25:14;;;;;;;14.93;11.90;;;11.50;99.90;;;;;;5090609;28;20501;-62
2022/04/23 01:27:40;;;;;;;14.82;12.07;;;11.60;99.90;;;;;;5087702;28;20036;-63
2022/04/23 01:30:08;;;;;;;15.30;12.20;;;11.50;99.90;;;;;;5088977;28;20094;-62
2022/04/23 01:32:34;;;;;;;15.85;11.60;;;11.60;99.90;;;;;;5089030;28;20043;-63
2022/04/23 01:35:00;;;;;;;14.73;11.63;;;11.50;99.90;;;;;;5085877;28;20040;-63
2022/04/23 01:37:25;;;;;;;15.68;11.98;;;11.50;99.90;;;;;;5087581;28;20052;-64
2022/04/23 01:39:51;;;;;;;15.07;11.93;;;11.50;99.90;;;;;;5071684;28;20051;-62
2022/04/23 01:42:19;;;;;;;15.80;12.60;;;11.50;99.90;;;;;;5089112;28;20114;-64
2022/04/23 01:44:46;;;;;;;15.32;11.90;;;11.50;99.90;;;;;;5088631;28;20044;-63
2022/04/23 01:47:12;;;;;;;15.57;12.40;;;11.50;99.90;;;;;;5085900;28;20078;-63
2022/04/23 01:49:38;;;;;;;15.93;12.35;;;11.40;99.90;;;;;;5086318;28;20463;-63
2022/04/23 01:52:04;;;;;;;14.20;12.02;;;11.40;99.90;;;;;;5088521;28;20059;-64
2022/04/23 01:54:29;;;;;;;14.93;12.45;;;11.40;99.90;;;;;;5088217;28;20370;-64
2022/04/23 01:56:59;;;;;;;15.50;12.15;;;11.40;99.90;;;;;;5085869;28;20474;-62
2022/04/23 01:59:24;;;;;;;14.77;11.93;;;11.40;99.90;;;;;;5084244;28;20048;-63
2022/04/23 02:01:50;;;;;;;14.90;12.18;;;11.40;99.90;;;;;;5089033;28;20062;-63
2022/04/23 02:04:16;;;;;;;15.55;11.40;;;11.30;99.90;;;;;;5084865;28;20056;-64
2022/04/23 02:06:42;;;;;;;15.00;12.02;;;11.40;99.90;;;;;;5087166;28;20077;-63
2022/04/23 02:09:08;;;;;;;14.65;12.05;;;11.30;99.90;;;;;;5089113;28;20123;-64
2022/04/23 02:11:33;;;;;;;15.05;11.85;;;11.30;99.90;;;;;;5083927;28;20068;-64
2022/04/23 02:13:59;;;;;;;15.52;11.82;;;11.30;99.90;;;;;;5087969;28;20036;-62
2022/04/23 02:16:26;;;;;;;15.20;12.32;;;11.30;99.90;;;;;;5087124;28;20510;-62
2022/04/23 02:18:52;;;;;;;16.08;12.50;;;11.20;99.90;;;;;;5089134;28;20055;-64
2022/04/23 02:21:17;;;;;;;16.08;12.93;;;11.20;99.90;;;;;;5086938;28;20356;-63
2022/04/23 02:23:44;;;;;;;16.45;12.38;;;11.20;99.90;;;;;;5086661;28;20115;-65
2022/04/23 02:26:10;;;;;;;14.75;11.48;;;11.20;99.90;;;;;;5088813;28;20086;-63
2022/04/23 02:28:38;;;;;;;14.23;10.90;;;11.10;99.90;;;;;;5086069;28;20041;-63
2022/04/23 02:31:04;;;;;;;14.13;12.13;;;11.10;99.90;;;;;;5084271;28;20048;-63
2022/04/23 02:33:30;;;;;;;14.88;11.68;;;11.10;99.90;;;;;;5079805;28;20512;-64
2022/04/23 02:35:55;;;;;;;14.30;12.18;;;11.10;99.90;;;;;;5086677;28;20059;-63
2022/04/23 02:38:21;;;;;;;15.48;12.63;;;11.00;99.90;;;;;;5089216;28;20476;-63
2022/04/23 02:40:47;;;;;;;15.40;12.25;;;11.00;99.90;;;;;;5088387;28;20204;-63
2022/04/23 02:43:12;;;;;;;15.18;11.68;;;11.00;99.90;;;;;;5088878;28;20036;-63
2022/04/23 02:45:39;;;;;;;14.77;12.30;;;11.00;99.90;;;;;;5079217;28;20131;-64
2022/04/23 02:48:04;;;;;;;15.43;12.23;;;11.00;99.90;;;;;;5084825;28;20088;-63
2022/04/23 02:50:32;;;;;;;14.77;12.15;;;10.90;99.90;;;;;;5085818;28;20095;-64
2022/04/23 02:52:58;;;;;;;16.95;12.48;;;10.90;99.90;;;;;;5086947;28;20119;-64
2022/04/23 02:55:25;;;;;;;15.07;12.55;;;10.90;99.90;;;;;;5085369;28;20505;-64
2022/04/23 02:57:52;;;;;;;13.45;11.32;;;10.90;99.90;;;;;;5086800;28;20040;-64
2022/04/23 03:00:19;;;;;;;15.05;11.77;;;10.90;99.90;;;;;;5086068;28;20039;-64
2022/04/23 03:02:47;;;;;;;15.02;11.38;;;10.90;99.90;;;;;;5087829;28;20055;-62
2022/04/23 03:05:16;;;;;;;15.52;12.43;;;10.90;99.90;;;;;;5085531;28;20039;-63
2022/04/23 03:07:42;;;;;;;15.10;12.05;;;10.80;99.90;;;;;;5085387;28;20123;-63
2022/04/23 03:10:10;;;;;;;14.13;11.55;;;10.70;99.90;;;;;;5084763;28;20047;-63
2022/04/23 03:12:36;;;;;;;13.75;11.63;;;10.70;99.90;;;;;;5086625;28;21907;-62
2022/04/23 03:15:07;;;;;;;13.55;11.32;;;10.70;99.90;;;;;;5087392;28;20040;-63
2022/04/23 03:17:32;;;;;;;15.48;12.85;;;10.70;99.90;;;;;;5089343;28;20039;-64
2022/04/23 03:19:58;;;;;;;15.63;12.18;;;10.60;99.90;;;;;;5086854;28;20372;-63
2022/04/23 03:22:24;;;;;;;16.30;11.93;;;10.60;99.90;;;;;;5081691;28;20040;-63
2022/04/23 03:24:49;;;;;;;14.45;11.80;;;10.50;99.90;;;;;;5082464;28;20054;-63
2022/04/23 03:27:15;;;;;;;14.25;11.35;;;10.50;99.90;;;;;;5086892;28;20122;-63
2022/04/23 03:29:41;;;;;;;15.80;11.05;;;10.50;99.90;;;;;;5085138;28;20369;-62
2022/04/23 03:32:07;;;;;;;12.98;10.80;;;10.50;99.90;;;;;;5086587;28;20047;-62
2022/04/23 03:34:33;;;;;;;13.90;10.75;;;10.50;99.90;;;;;;5084532;28;20040;-62
2022/04/23 03:36:58;;;;;;;13.63;10.50;;;10.50;99.90;;;;;;5087399;28;20502;-62
2022/04/23 03:39:24;;;;;;;12.88;10.05;;;10.50;99.90;;;;;;5088291;28;20040;-63
2022/04/23 03:41:50;;;;;;;12.73;10.25;;;10.40;99.90;;;;;;5085035;28;20044;-63
2022/04/23 03:44:15;;;;;;;14.20;10.43;;;10.40;99.90;;;;;;5087634;28;20115;-63
2022/04/23 03:46:41;;;;;;;13.65;9.90;;;10.30;99.90;;;;;;5085414;28;20391;-64
2022/04/23 03:49:08;;;;;;;13.05;9.45;;;10.40;99.90;;;;;;5085771;28;20163;-62
2022/04/23 03:51:34;;;;;;;12.25;9.77;;;10.30;99.90;;;;;;5083205;28;20044;-63
2022/04/23 03:54:01;;;;;;;13.05;9.65;;;10.30;99.90;;;;;;5087320;28;20051;-62
2022/04/23 03:56:27;;;;;;;13.20;10.38;;;10.30;99.90;;;;;;5080514;28;20055;-63
2022/04/23 03:58:52;;;;;;;12.73;9.93;;;10.30;99.90;;;;;;5081984;28;20056;-63
2022/04/23 04:01:18;;;;;;;15.48;10.27;;;10.30;99.90;;;;;;5084505;28;20494;-63
2022/04/23 04:03:43;;;;;;;13.30;9.65;;;10.30;99.90;;;;;;5086487;28;20040;-62
2022/04/23 04:06:10;;;;;;;13.98;9.55;;;10.30;99.90;;;;;;5083829;28;20055;-63
2022/04/23 04:08:35;;;;;;;12.82;9.80;;;10.30;99.90;;;;;;5085026;28;20052;-64
2022/04/23 04:11:01;;;;;;;12.40;9.90;;;10.30;99.90;;;;;;5079628;28;20051;-63
2022/04/23 04:13:27;;;;;;;12.02;9.75;;;10.30;99.90;;;;;;5086193;28;20129;-62
2022/04/23 04:15:52;;;;;;;13.45;10.02;;;10.20;99.90;;;;;;5086223;28;20036;-64
2022/04/23 04:18:19;;;;;;;12.38;9.43;;;10.20;99.90;;;;;;5087913;28;20063;-63
2022/04/23 04:20:48;;;;;;;14.23;9.77;;;10.20;99.90;;;;;;5086084;28;20040;-63
2022/04/23 04:23:14;;;;;;;12.50;9.50;;;10.20;99.90;;;;;;5084408;28;20143;-63
2022/04/23 04:25:40;;;;;;;13.95;9.65;;;10.20;99.90;;;;;;5086719;28;20058;-63
2022/04/23 04:28:07;;;;;;;12.35;9.65;;;10.20;99.90;;;;;;5088761;28;20044;-63
2022/04/23 04:31:47;;;;;;;13.73;10.63;;;10.20;99.90;;;;;;5084824;28;20050;-63
2022/04/23 04:33:20;;;;;;;;;;;10.10;99.90;;;;;;5085767;28;20392;-62
2022/04/23 04:35:45;;;;;;;12.98;9.88;;;10.10;99.90;;;;;;5082781;28;19926;-62
2022/04/23 04:38:11;;;;;;;12.35;9.93;;;10.10;99.90;;;;;;5085554;28;20044;-63
2022/04/23 04:40:36;;;;;;;12.20;9.43;;;10.10;99.90;;;;;;5087681;28;20039;-62
2022/04/23 04:43:02;;;;;;;13.23;9.52;;;10.20;99.90;;;;;;5087277;28;20048;-63
2022/04/23 04:45:27;;;;;;;15.63;9.93;;;10.20;99.90;;;;;;5084499;28;20119;-64
2022/04/23 04:47:53;;;;;;;12.18;9.05;;;10.10;99.90;;;;;;5088487;28;20396;-62
2022/04/23 04:50:18;;;;;;;11.15;8.90;;;10.10;99.90;;;;;;5082317;28;20120;-63
2022/04/23 04:52:44;;;;;;;13.63;8.98;;;10.10;99.90;;;;;;5085734;28;20036;-63
2022/04/23 04:55:10;;;;;;;12.25;9.43;;;10.20;99.90;;;;;;5084187;28;20143;-62
2022/04/23 04:57:36;;;;;;;13.82;9.10;;;10.40;99.90;;;;;;5086582;28;20064;-64
2022/04/23 05:00:02;;;;;;;13.00;8.95;;;10.50;99.90;;;;;;5084708;28;20047;-65
2022/04/23 05:02:28;;;;;;;12.43;9.48;;;10.60;99.90;;;;;;5085800;28;20052;-63
2022/04/23 05:04:53;;;;;;;10.23;8.75;;;10.70;99.90;;;;;;5086826;28;20052;-63
2022/04/23 05:07:19;;;;;;;11.90;8.98;;;10.90;99.90;;;;;;5083048;28;20040;-63
2022/04/23 05:09:45;;;;;;;10.70;8.88;;;10.80;99.90;;;;;;5080849;28;20078;-65
2022/04/23 05:12:10;;;;;;;10.88;8.35;;;10.90;99.90;;;;;;5082173;28;20122;-64
2022/04/23 05:14:36;;;;;;;10.77;8.02;;;10.80;99.90;;;;;;5079567;28;20429;-64
2022/04/23 05:17:02;;;;;;;12.07;8.27;;;10.80;99.90;;;;;;5078396;28;20055;-63
2022/04/23 05:19:27;;;;;;;10.32;7.68;;;10.90;99.90;;;;;;5077163;28;20032;-64
2022/04/23 05:21:53;;;;;;;12.55;8.65;;;10.90;99.90;;;;;;5080076;28;20130;-65
2022/04/23 05:24:18;;;;;;;9.95;7.47;;;10.90;99.90;;;;;;5085849;28;20039;-64
2022/04/23 05:26:44;;;;;;;11.05;7.97;;;11.00;99.90;;;;;;5091238;28;20050;-64
2022/04/23 05:29:10;;;;;;;9.52;7.53;;;11.00;99.90;;;;;;5089740;28;20036;-63
2022/04/23 05:31:38;;;;;;;10.38;7.53;;;11.00;99.90;;;;;;5091234;28;20036;-63
2022/04/23 05:34:04;;;;;;;9.20;7.32;;;11.00;99.90;;;;;;5079927;28;20063;-62
2022/04/23 05:36:30;;;;;;;9.60;7.70;;;11.00;99.90;;;;;;5089794;28;20040;-64
2022/04/23 05:38:55;;;;;;;10.60;7.57;;;11.00;99.90;;;;;;5089802;28;20051;-65
2022/04/23 05:41:21;;;;;;;10.48;8.07;;;10.90;99.90;;;;;;5087422;28;20097;-64
2022/04/23 05:43:47;;;;;;;10.90;8.20;;;10.80;99.90;;;;;;5089051;28;20122;-64
2022/04/23 05:46:15;;;;;;;10.35;7.75;;;10.80;99.90;;;;;;5090088;28;20058;-64
2022/04/23 05:48:41;;;;;;;8.63;7.30;;;10.70;99.90;;;;;;5089184;28;20040;-62
2022/04/23 05:51:06;;;;;;;9.30;7.30;;;10.70;99.90;;;;;;5089025;28;20040;-63
2022/04/23 05:53:32;;;;;;;10.90;7.57;;;10.80;99.90;;;;;;5085234;28;20037;-63
2022/04/23 05:55:57;;;;;;;9.70;7.63;;;10.80;99.90;;;;;;5080254;28;20059;-63
2022/04/23 05:58:23;;;;;;;10.75;7.63;;;10.90;99.90;;;;;;5084141;28;20478;-63
2022/04/23 06:00:51;;;;;;;8.90;7.13;;;10.90;99.90;;;;;;5085789;28;20052;-64
2022/04/23 06:03:17;;;;;;;9.45;7.32;;;11.00;99.90;;;;;;5085769;28;20174;-63
2022/04/23 06:05:42;;;;;;;9.20;7.53;;;11.20;99.90;;;;;;5086780;28;20069;-63
2022/04/23 06:08:08;;;;;;;9.43;7.22;;;11.10;99.90;;;;;;5064409;28;20419;-63
2022/04/23 06:10:34;;;;;;;9.35;7.50;;;11.30;99.90;;;;;;5083553;28;20028;-64
2022/04/23 06:13:00;;;;;;;10.30;7.40;;;11.30;99.90;;;;;;5087627;28;20108;-63
2022/04/23 06:15:26;;;;;;;9.70;7.22;;;11.40;99.90;;;;;;5087647;28;20120;-64
2022/04/23 06:17:51;;;;;;;8.77;7.28;;;11.40;99.90;;;;;;5078722;28;20082;-63
2022/04/23 06:20:17;;;;;;;9.27;7.57;;;11.50;99.90;;;;;;5081766;28;20065;-62
2022/04/23 06:22:42;;;;;;;9.07;7.45;;;11.60;99.90;;;;;;5089826;28;20147;-63
2022/04/23 06:25:08;;;;;;;9.55;7.78;;;11.60;99.90;;;;;;5087228;28;20380;-63
2022/04/23 06:27:35;;;;;;;8.43;6.95;;;11.70;99.90;;;;;;5089749;28;20139;-63
2022/04/23 06:30:01;;;;;;;10.02;7.10;;;11.70;99.90;;;;;;5084844;28;20044;-63
2022/04/23 06:32:26;;;;;;;9.20;7.60;;;11.70;99.90;;;;;;5083779;28;20052;-65
2022/04/23 06:34:52;;;;;;;10.05;7.55;;;11.70;99.90;;;;;;5080954;28;20131;-65
2022/04/23 06:37:21;;;;;;;9.75;7.90;;;11.80;99.90;;;;;;5074389;28;20045;-64
2022/04/23 06:39:47;;;;;;;10.48;7.90;;;11.80;99.90;;;;;;5076581;28;20043;-62
2022/04/23 06:42:12;;;;;;;10.40;7.95;;;11.90;99.90;;;;;;5084116;28;20032;-62
2022/04/23 06:44:38;;;;;;;9.75;8.10;;;12.00;99.90;;;;;;5079283;28;20380;-65
2022/04/23 06:47:04;;;;;;;10.13;7.50;;;12.10;99.90;;;;;;5085407;28;20028;-63
2022/04/23 06:49:30;;;;;;;11.00;8.52;;;12.10;99.90;;;;;;5077332;28;20090;-63
2022/04/23 06:51:56;;;;;;;10.98;8.27;;;12.20;99.90;;;;;;5084473;28;20067;-63
2022/04/23 06:54:23;;;;;;;10.20;7.90;;;12.20;99.90;;;;;;5086954;28;20086;-63
2022/04/23 06:56:48;;;;;;;8.70;7.50;;;12.30;99.90;;;;;;5085631;28;20060;-65
2022/04/23 06:59:14;;;;;;;11.52;8.32;;;12.30;99.90;;;;;;5087775;28;20044;-64
2022/04/23 07:01:42;;;;;;;11.07;8.93;;;12.40;99.90;;;;;;5078661;28;20040;-64
2022/04/23 07:04:09;;;;;;;11.52;9.30;;;12.50;99.90;;;;;;5081229;28;20050;-64
2022/04/23 07:06:35;;;;;;;11.55;8.25;;;12.50;99.90;;;;;;5081693;28;20588;-64
2022/04/23 07:09:01;;;;;;;11.48;8.43;;;12.60;99.90;;;;;;5082575;28;20063;-64
2022/04/23 07:11:26;;;;;;;10.60;8.45;;;12.60;99.90;;;;;;5083951;28;20357;-65
2022/04/23 07:13:51;;;;;;;11.15;8.68;;;12.70;99.90;;;;;;5081662;28;20044;-63
2022/04/23 07:16:17;;;;;;;10.48;8.85;;;12.60;99.90;;;;;;5082777;28;20032;-65
2022/04/23 07:18:43;;;;;;;11.77;8.70;;;12.80;99.90;;;;;;5086521;28;20119;-64
2022/04/23 07:21:08;;;;;;;13.35;9.45;;;12.90;99.90;;;;;;5083186;28;20036;-63
2022/04/23 07:26:19;;;;;;;13.98;9.30;;;12.90;99.90;;;;;;5083981;28;20058;-63
2022/04/23 07:28:44;;;;;;;12.82;9.25;;;13.00;99.90;;;;;;5086317;28;20122;-65
2022/04/23 07:31:10;;;;;;;12.38;9.52;;;13.00;99.90;;;;;;5086235;28;20085;-63
2022/04/23 07:39:04;;;;;;;11.85;9.45;;;13.20;99.60;;;;;;5067777;28;20098;-64
2022/04/23 07:41:30;;;;;;;11.45;9.50;;;13.20;99.20;;;;;;5069913;28;20064;-65
2022/04/23 07:43:56;;;;;;;12.73;9.30;;;13.30;99.60;;;;;;5076934;28;20035;-64
2022/04/23 07:46:22;;;;;;;11.90;9.88;;;13.30;99.80;;;;;;5081993;28;20052;-64
2022/04/23 07:48:48;;;;;;;13.95;9.65;;;13.50;99.20;;;;;;5084941;28;20040;-65
2022/04/23 07:51:13;;;;;;;11.85;9.55;;;13.50;98.40;;;;;;5086302;28;20054;-64
2022/04/23 07:53:39;;;;;;;12.35;9.93;;;13.60;98.60;;;;;;5076375;28;20090;-64
2022/04/23 07:56:05;;;;;;;13.20;9.88;;;13.60;97.80;;;;;;5068006;28;20088;-63
2022/04/23 07:58:31;;;;;;;12.98;10.15;;;13.60;95.90;;;;;;5070560;28;20036;-64
2022/04/23 08:00:56;;;;;;;13.80;10.52;;;13.60;96.70;;;;;;5075261;28;20403;-63
2022/04/23 08:03:22;;;;;;;11.32;9.30;;;13.70;97.30;;;;;;5085497;28;20082;-64
2022/04/23 08:05:47;;;;;;;12.40;9.98;;;13.80;97.10;;;;;;5081384;28;20042;-63
2022/04/23 08:08:15;;;;;;;14.18;9.82;;;14.00;97.20;;;;;;5085087;28;20082;-63
2022/04/23 08:10:41;;;;;;;12.23;9.95;;;14.10;96.60;;;;;;5087275;28;20127;-63
2022/04/23 08:13:06;;;;;;;14.23;10.50;;;14.00;94.70;;;;;;5087212;28;20116;-64
2022/04/23 08:15:33;;;;;;;12.30;10.15;;;14.10;94.80;;;;;;5086293;28;20403;-63
2022/04/23 08:18:01;;;;;;;12.43;10.25;;;14.20;95.30;;;;;;5086418;28;20064;-63
2022/04/23 08:20:30;;;;;;;14.43;10.82;;;14.20;94.80;;;;;;5082726;28;20105;-65
2022/04/23 08:22:56;;;;;;;13.32;9.75;;;14.30;94.30;;;;;;5086143;28;20044;-64
2022/04/23 08:25:21;;;;;;;13.52;9.98;;;14.40;93.30;;;;;;5087703;28;20499;-66
2022/04/23 08:27:52;;;;;;;15.70;10.65;;;14.40;94.00;;;;;;5087146;28;20476;-64
2022/04/23 08:30:34;;;;;;;14.23;10.35;;;14.50;93.60;;;;;;5089305;28;20044;-64
2022/04/23 08:33:03;;;;;;;13.93;10.05;;;14.60;94.20;;;;;;5087948;28;20048;-64
2022/04/23 08:35:29;;;;;;;14.23;10.23;;;14.70;94.10;;;;;;5085323;28;20044;-63
2022/04/23 08:37:54;;;;;;;12.27;9.52;;;14.70;93.10;;;;;;5085228;28;20043;-63
2022/04/23 08:40:21;;;;;;;13.95;10.27;;;14.70;92.60;;;;;;5084925;28;20127;-65
2022/04/23 08:42:47;;;;;;;16.63;10.52;;;14.80;92.50;;;;;;5078854;28;20045;-63
2022/04/23 08:45:13;;;;;;;14.38;10.45;;;14.90;92.30;;;;;;5087146;28;20051;-64
2022/04/23 08:47:44;;;;;;;12.25;9.90;;;15.00;91.50;;;;;;5086435;28;20044;-63
2022/04/23 08:50:10;;;;;;;14.88;10.45;;;15.00;90.70;;;;;;5085406;28;20040;-64
2022/04/23 08:52:36;;;;;;;13.57;10.27;;;15.00;89.80;;;;;;5081984;28;20078;-65
2022/04/23 08:55:06;;;;;;;15.10;10.52;;;15.10;89.60;;;;;;5087024;28;20342;-65
2022/04/23 08:57:32;;;;;;;13.18;10.45;;;15.10;90.30;;;;;;5087576;28;20050;-64
2022/04/23 08:59:59;;;;;;;13.52;10.00;;;15.20;90.00;;;;;;5091198;28;20127;-64
2022/04/23 09:02:26;;;;;;;13.65;10.68;;;15.20;89.10;;;;;;5090864;28;20052;-64
2022/04/23 09:04:54;;;;;;;15.60;10.27;;;15.30;88.60;;;;;;5087697;28;20048;-64
2022/04/23 09:07:25;;;;;;;13.25;10.13;;;15.30;87.30;;;;;;5082238;28;20123;-66
2022/04/23 09:09:52;;;;;;;13.75;9.98;;;15.30;85.20;;;;;;5087932;28;20109;-63
2022/04/23 09:12:19;;;;;;;11.88;9.20;;;15.30;84.00;;;;;;5089163;28;20036;-63
2022/04/23 09:14:45;;;;;;;12.60;9.98;;;15.40;83.80;;;;;;5088972;28;20052;-63
2022/04/23 09:25:36;;;;;;;14.35;9.75;;;15.70;87.20;;;;;;5084329;28;20044;-65
2022/04/23 09:28:26;;;;;;;14.60;9.18;;;16.00;88.90;;;;;;5086808;28;20134;-65
2022/04/23 09:30:56;;;;;;;14.52;9.70;;;16.10;87.40;;;;;;5085967;28;20451;-64
2022/04/23 09:33:41;;;;;;;15.85;10.23;;;16.10;82.20;;;;;;5087617;28;20063;-64
2022/04/23 09:36:06;;;;;;;13.35;10.27;;;16.20;82.80;;;;;;5082861;28;20040;-66
2022/04/23 09:38:32;;;;;;;15.25;9.95;;;16.10;81.90;;;;;;5086644;28;20032;-65
2022/04/23 09:41:15;;;;;;;12.52;9.60;;;16.10;79.40;;;;;;5088174;28;20048;-65
2022/04/23 09:43:42;;;;;;;13.32;9.77;;;16.10;79.70;;;;;;5088425;28;20086;-66
2022/04/23 09:46:09;;;;;;;13.68;10.00;;;16.20;81.10;;;;;;5087324;28;20036;-65
2022/04/23 09:48:39;;;;;;;12.73;9.85;;;16.20;78.10;;;;;;5086820;28;20043;-65
2022/04/23 09:51:26;;;;;;;15.15;10.32;;;16.20;76.40;;;;;;5084886;28;20075;-65
2022/04/23 09:53:54;;;;;;;13.63;9.68;;;16.20;78.30;;;;;;5081954;28;20066;-64
2022/04/23 09:56:26;;;;;;;13.32;9.95;;;16.30;78.80;;;;;;5088575;28;20139;-65
2022/04/23 09:58:52;;;;;;;11.85;9.63;;;16.40;79.50;;;;;;5085852;28;20035;-66
2022/04/23 10:01:20;;;;;;;15.48;10.00;;;16.40;78.00;;;;;;5091800;28;20408;-65
2022/04/23 10:03:51;;;;;;;14.95;10.20;;;16.50;78.70;;;;;;5089714;28;20142;-66
2022/04/23 10:06:20;;;;;;;14.07;10.52;;;16.60;79.30;;;;;;5087582;28;20054;-63
2022/04/23 10:08:49;;;;;;;13.68;9.52;;;16.70;78.10;;;;;;5087427;28;20040;-65
2022/04/23 10:11:17;;;;;;;12.48;9.70;;;16.70;77.30;;;;;;5090973;28;20118;-65
2022/04/23 10:13:46;;;;;;;14.02;10.63;;;16.80;75.90;;;;;;5080419;28;20155;-65
2022/04/23 10:16:13;;;;;;;13.57;10.38;;;16.80;76.20;;;;;;5082830;28;20664;-65
2022/04/23 10:18:39;;;;;;;13.95;9.68;;;16.90;76.40;;;;;;5090712;28;20091;-65
2022/04/23 10:21:10;;;;;;;11.93;9.98;;;17.00;71.80;;;;;;5085360;28;20047;-64
2022/04/23 10:24:05;;;;;;;13.68;10.32;;;17.00;72.80;;;;;;5089522;28;20043;-64
2022/04/23 10:26:51;;;;;;;13.23;10.83;;;17.10;74.90;;;;;;5083523;28;20442;-64
2022/04/23 10:29:22;;;;;;;13.90;11.30;;;17.00;72.90;;;;;;5085386;28;20650;-64
2022/04/23 10:32:13;;;;;;;12.88;10.48;;;17.10;71.40;;;;;;5089254;28;20032;-64
2022/04/23 10:34:40;;;;;;;12.65;10.20;;;17.10;69.80;;;;;;5082077;28;20071;-65
2022/04/23 10:37:19;;;;;;;12.88;10.15;;;17.20;73.40;;;;;;5085632;28;20395;-64
2022/04/23 10:40:05;;;;;;;12.80;10.85;;;17.20;71.20;;;;;;5076490;28;20250;-66
2022/04/23 10:42:32;;;;;;;12.25;10.65;;;17.10;71.40;;;;;;5077768;28;20074;-64
2022/04/23 10:45:03;;;;;;;12.35;10.48;;;17.10;71.90;;;;;;5080370;28;20169;-64
2022/04/23 10:47:36;;;;;;;12.80;10.77;;;17.20;73.40;;;;;;5083166;28;20088;-64
2022/04/23 10:50:29;;;;;;;13.93;10.68;;;17.30;73.10;;;;;;5084314;28;20039;-66
2022/04/23 10:53:03;;;;;;;15.18;11.07;;;17.30;69.30;;;;;;5087129;28;20036;-64
2022/04/23 10:55:29;;;;;;;13.93;11.80;;;17.30;69.70;;;;;;5088839;28;20142;-63
2022/04/23 10:58:15;;;;;;;12.35;10.25;;;17.40;71.70;;;;;;5086623;28;20048;-63
2022/04/23 11:00:45;;;;;;;12.30;10.48;;;17.40;72.10;;;;;;5086362;28;20044;-63
2022/04/23 11:03:11;;;;;;;13.85;11.30;;;17.50;71.20;;;;;;5090170;28;20056;-64
2022/04/23 11:14:39;;;;;;;13.25;11.10;;;17.50;69.40;;;;;;5085369;28;20067;-65
2022/04/23 11:17:05;;;;;;;13.40;11.10;;;17.40;65.40;;;;;;5083157;28;20040;-65
2022/04/23 11:19:31;;;;;;;15.70;10.98;;;17.40;67.10;;;;;;5087547;28;20494;-65
2022/04/23 11:21:57;;;;;;;13.13;10.40;;;17.40;66.50;;;;;;5089928;28;20109;-64
2022/04/23 11:24:24;;;;;;;12.90;10.98;;;17.40;66.90;;;;;;5087520;28;20040;-64
2022/04/23 11:26:51;;;;;;;13.32;10.63;;;17.40;66.60;;;;;;5087892;28;20040;-64
2022/04/23 11:29:17;;;;;;;13.35;10.85;;;17.50;66.40;;;;;;5089103;28;20131;-64
2022/04/23 11:31:56;;;;;;;11.55;10.07;;;17.50;66.20;;;;;;5088299;28;20040;-64
2022/04/23 11:34:22;;;;;;;12.93;10.70;;;17.50;66.80;;;;;;5083126;28;20048;-63
2022/04/23 11:36:48;;;;;;;13.05;10.50;;;17.50;67.00;;;;;;5083541;28;20389;-63
2022/04/23 11:39:14;;;;;;;12.35;11.05;;;17.60;67.20;;;;;;5078623;28;20070;-63
2022/04/23 11:41:50;;;;;;;12.77;10.27;;;17.70;67.80;;;;;;5088048;28;20105;-63
2022/04/23 11:44:17;;;;;;;14.55;10.75;;;17.80;67.90;;;;;;5090260;28;20051;-63
2022/04/23 11:46:48;;;;;;;17.63;10.32;;;18.00;68.60;;;;;;5089099;28;20082;-64
2022/04/23 11:49:26;;;;;;;11.93;10.63;;;18.00;66.00;;;;;;5087844;28;20072;-64
2022/04/23 11:52:06;;;;;;;11.13;9.95;;;18.10;65.50;;;;;;5084772;28;20167;-63
2022/04/23 11:54:39;;;;;;;14.57;10.07;;;18.10;65.10;;;;;;5087756;28;20044;-65
2022/04/23 11:57:08;;;;;;;11.95;9.80;;;18.10;64.50;;;;;;5086931;28;20048;-64
2022/04/23 11:59:38;;;;;;;13.25;10.07;;;18.20;64.90;;;;;;5082432;28;20036;-63
2022/04/23 12:02:24;;;;;;;10.77;9.45;;;18.30;66.30;;;;;;5086006;28;20127;-64
2022/04/23 12:05:08;;;;;;;12.32;9.75;;;18.40;64.70;;;;;;5087761;28;20056;-64
2022/04/23 12:07:33;;;;;;;14.30;9.80;;;18.30;61.60;;;;;;5083065;28;20048;-64
2022/04/23 12:10:00;;;;;;;11.40;9.18;;;18.20;61.60;;;;;;5088123;28;20388;-63
2022/04/23 12:12:28;;;;;;;13.65;9.90;;;18.20;61.40;;;;;;5088170;28;20036;-62
2022/04/23 12:14:55;;;;;;;15.00;9.90;;;18.30;62.70;;;;;;5084813;28;20040;-62
2022/04/23 12:17:47;;;;;;;11.70;9.65;;;18.40;62.60;;;;;;5086337;28;20504;-62
2022/04/23 12:20:15;;;;;;;13.35;9.13;;;18.40;61.10;;;;;;5068221;28;20051;-62
2022/04/23 12:22:55;;;;;;;11.35;9.75;;;18.40;61.20;;;;;;5083184;28;20036;-63
2022/04/23 12:25:21;;;;;;;13.07;10.70;;;18.50;60.70;;;;;;5087817;28;20040;-63
2022/04/23 12:27:58;;;;;;;11.82;9.63;;;18.50;61.30;;;;;;5089028;28;20070;-63
2022/04/23 12:41:55;;;;;;;11.27;9.20;;;18.50;61.10;;;;;;5088516;28;20390;-62
2022/04/23 12:44:22;;;;;;;10.10;8.30;;;18.50;58.90;;;;;;5088127;28;21105;-63
2022/04/23 12:47:10;;;;;;;11.60;8.00;;;18.50;58.90;;;;;;5084098;28;20115;-63
2022/04/23 12:49:50;;;;;;;10.18;7.72;;;18.60;59.30;;;;;;5086212;28;20483;-62
2022/04/23 12:52:21;;;;;;;10.70;7.65;;;18.60;57.00;;;;;;5090058;28;20044;-62
2022/04/23 12:55:15;;;;;;;9.98;7.18;;;18.60;55.90;;;;;;5085238;28;20040;-62
2022/04/23 12:57:54;;;;;;;11.18;7.38;;;18.60;56.80;;;;;;5074086;28;20064;-63
2022/04/23 13:00:21;;;;;;;12.25;6.97;;;18.60;56.80;;;;;;5081610;28;20456;-64
2022/04/23 13:02:51;;;;;;;8.85;6.80;;;18.60;57.60;;;;;;5090403;28;20059;-63
2022/04/23 13:05:17;;;;;;;8.82;6.10;;;18.70;57.00;;;;;;5087702;28;20039;-63
2022/04/23 13:10:27;;;;;;;7.78;6.28;;;18.70;55.00;;;;;;5089383;28;20058;-65
2022/04/23 13:12:53;;;;;;;8.10;5.85;;;18.70;55.70;;;;;;5091010;28;20040;-64
2022/04/23 13:15:18;;;;;;;9.48;6.70;;;18.80;55.90;;;;;;5089703;28;20463;-65
2022/04/23 13:17:46;;;;;;;8.15;6.07;;;18.90;56.20;;;;;;5091094;28;20028;-64